Terminal Aerodrome Forecast
Issued by NWS Louisville, KY

Home | Current Version | Previous Version | Text Only | Print | Product List | Glossary On
Versions: 1 2 3 4 5 6 7 8 9 10 11 12 13 14 15 16 17 18 19 20 21 22 23 24 25 26
945
FTUS43 KLMK 300924 AAA
TAFSDF
TAF AMD
KSDF 300924Z 3009/0112 VRB05KT P6SM VCSH SCT010 OVC090
     FM301100 VRB03KT P6SM OVC011
     FM301500 18006KT P6SM VCSH OVC015
     FM010000 14004KT P6SM BKN025=

USA.gov is the U.S. government's official web portal to all federal, state and local government web resources and services.